sensor_id;sensor_type;location;lat;lon;timestamp;temperature;humidity
22966;DHT22;11649;48.090;9.754;2023-07-29T00:02:19;15.90;99.90
22966;DHT22;11649;48.090;9.754;2023-07-29T00:04:46;15.90;99.90
22966;DHT22;11649;48.090;9.754;2023-07-29T00:07:13;15.70;99.90
22966;DHT22;11649;48.090;9.754;2023-07-29T00:09:40;15.90;99.90
22966;DHT22;11649;48.090;9.754;2023-07-29T00:12:07;15.90;99.90
22966;DHT22;11649;48.090;9.754;2023-07-29T00:14:34;15.90;99.90
22966;DHT22;11649;48.090;9.754;2023-07-29T00:17:00;15.80;99.90
22966;DHT22;11649;48.090;9.754;2023-07-29T00:19:27;16.00;99.90
22966;DHT22;11649;48.090;9.754;2023-07-29T00:21:55;16.80;99.90
22966;DHT22;11649;48.090;9.754;2023-07-29T00:24:21;15.70;99.90
22966;DHT22;11649;48.090;9.754;2023-07-29T00:26:48;15.80;99.90
22966;DHT22;11649;48.090;9.754;2023-07-29T00:29:15;15.90;99.90
22966;DHT22;11649;48.090;9.754;2023-07-29T00:31:42;15.70;99.90
22966;DHT22;11649;48.090;9.754;2023-07-29T00:34:08;15.80;99.90
22966;DHT22;11649;48.090;9.754;2023-07-29T00:36:35;15.70;99.90
22966;DHT22;11649;48.090;9.754;2023-07-29T00:39:02;15.70;99.90
22966;DHT22;11649;48.090;9.754;2023-07-29T00:41:29;15.60;99.90
22966;DHT22;11649;48.090;9.754;2023-07-29T00:43:56;15.80;99.90
22966;DHT22;11649;48.090;9.754;2023-07-29T00:46:23;15.80;99.90
22966;DHT22;11649;48.090;9.754;2023-07-29T00:48:51;16.00;99.90
22966;DHT22;11649;48.090;9.754;2023-07-29T00:51:18;16.00;99.90
22966;DHT22;11649;48.090;9.754;2023-07-29T00:53:44;16.10;99.90
22966;DHT22;11649;48.090;9.754;2023-07-29T00:56:11;16.20;99.90
22966;DHT22;11649;48.090;9.754;2023-07-29T00:58:38;16.10;99.90
22966;DHT22;11649;48.090;9.754;2023-07-29T01:01:05;16.00;99.90
22966;DHT22;11649;48.090;9.754;2023-07-29T01:03:32;16.10;99.90
22966;DHT22;11649;48.090;9.754;2023-07-29T01:09:04;16.10;99.90
22966;DHT22;11649;48.090;9.754;2023-07-29T01:14:49;16.00;99.90
22966;DHT22;11649;48.090;9.754;2023-07-29T01:17:32;16.10;99.90
22966;DHT22;11649;48.090;9.754;2023-07-29T01:20:07;16.10;99.90
22966;DHT22;11649;48.090;9.754;2023-07-29T01:22:35;16.10;99.90
22966;DHT22;11649;48.090;9.754;2023-07-29T01:25:03;16.00;99.90
22966;DHT22;11649;48.090;9.754;2023-07-29T01:27:30;16.10;99.90
22966;DHT22;11649;48.090;9.754;2023-07-29T01:29:57;16.10;99.90
22966;DHT22;11649;48.090;9.754;2023-07-29T01:32:51;16.10;99.90
22966;DHT22;11649;48.090;9.754;2023-07-29T01:35:24;16.20;99.90
22966;DHT22;11649;48.090;9.754;2023-07-29T01:37:58;16.10;99.90
22966;DHT22;11649;48.090;9.754;2023-07-29T01:40:27;16.20;99.90
22966;DHT22;11649;48.090;9.754;2023-07-29T01:42:55;16.20;99.90
22966;DHT22;11649;48.090;9.754;2023-07-29T01:45:30;16.20;99.90
22966;DHT22;11649;48.090;9.754;2023-07-29T01:48:02;16.10;99.90
22966;DHT22;11649;48.090;9.754;2023-07-29T01:50:28;16.20;99.90
22966;DHT22;11649;48.090;9.754;2023-07-29T01:52:55;16.20;99.90
22966;DHT22;11649;48.090;9.754;2023-07-29T01:55:22;16.30;99.90
22966;DHT22;11649;48.090;9.754;2023-07-29T01:57:49;16.30;99.90
22966;DHT22;11649;48.090;9.754;2023-07-29T02:00:16;16.20;99.90
22966;DHT22;11649;48.090;9.754;2023-07-29T02:02:43;16.20;99.90
22966;DHT22;11649;48.090;9.754;2023-07-29T02:05:10;16.10;99.90
22966;DHT22;11649;48.090;9.754;2023-07-29T02:07:36;16.00;99.90
22966;DHT22;11649;48.090;9.754;2023-07-29T02:10:04;15.90;99.90
22966;DHT22;11649;48.090;9.754;2023-07-29T02:12:30;15.90;99.90
22966;DHT22;11649;48.090;9.754;2023-07-29T02:14:57;15.90;99.90
22966;DHT22;11649;48.090;9.754;2023-07-29T02:17:24;15.90;99.90
22966;DHT22;11649;48.090;9.754;2023-07-29T02:19:52;16.00;99.90
22966;DHT22;11649;48.090;9.754;2023-07-29T02:22:19;16.00;99.90
22966;DHT22;11649;48.090;9.754;2023-07-29T02:24:45;15.80;99.90
22966;DHT22;11649;48.090;9.754;2023-07-29T02:27:12;15.70;99.90
22966;DHT22;11649;48.090;9.754;2023-07-29T02:29:39;15.60;99.90
22966;DHT22;11649;48.090;9.754;2023-07-29T02:32:06;15.70;99.90
22966;DHT22;11649;48.090;9.754;2023-07-29T02:34:32;15.70;99.90
22966;DHT22;11649;48.090;9.754;2023-07-29T02:36:59;15.70;99.90
22966;DHT22;11649;48.090;9.754;2023-07-29T02:39:26;15.40;99.90
22966;DHT22;11649;48.090;9.754;2023-07-29T02:41:53;15.10;99.90
22966;DHT22;11649;48.090;9.754;2023-07-29T02:44:21;15.20;99.90
22966;DHT22;11649;48.090;9.754;2023-07-29T02:46:48;15.10;99.90
22966;DHT22;11649;48.090;9.754;2023-07-29T02:49:15;15.30;99.90
22966;DHT22;11649;48.090;9.754;2023-07-29T02:51:42;15.30;99.90
22966;DHT22;11649;48.090;9.754;2023-07-29T02:54:08;15.30;99.90
22966;DHT22;11649;48.090;9.754;2023-07-29T02:56:35;15.30;99.90
22966;DHT22;11649;48.090;9.754;2023-07-29T02:59:02;15.40;99.90
22966;DHT22;11649;48.090;9.754;2023-07-29T03:01:29;15.40;99.90
22966;DHT22;11649;48.090;9.754;2023-07-29T03:03:56;15.30;99.90
22966;DHT22;11649;48.090;9.754;2023-07-29T03:06:23;15.00;99.90
22966;DHT22;11649;48.090;9.754;2023-07-29T03:08:50;15.30;99.90
22966;DHT22;11649;48.090;9.754;2023-07-29T03:11:17;14.90;99.90
22966;DHT22;11649;48.090;9.754;2023-07-29T03:13:44;14.90;99.90
22966;DHT22;11649;48.090;9.754;2023-07-29T03:16:16;14.80;99.90
22966;DHT22;11649;48.090;9.754;2023-07-29T03:18:43;14.80;99.90
22966;DHT22;11649;48.090;9.754;2023-07-29T03:21:11;15.00;99.90
22966;DHT22;11649;48.090;9.754;2023-07-29T03:23:38;15.10;99.90
22966;DHT22;11649;48.090;9.754;2023-07-29T03:26:10;15.20;99.90
22966;DHT22;11649;48.090;9.754;2023-07-29T03:28:39;15.30;99.90
22966;DHT22;11649;48.090;9.754;2023-07-29T03:31:06;15.40;99.90
22966;DHT22;11649;48.090;9.754;2023-07-29T03:33:34;15.40;99.90
22966;DHT22;11649;48.090;9.754;2023-07-29T03:36:01;15.30;99.90
22966;DHT22;11649;48.090;9.754;2023-07-29T03:38:28;15.30;99.90
22966;DHT22;11649;48.090;9.754;2023-07-29T03:40:55;15.40;99.90
22966;DHT22;11649;48.090;9.754;2023-07-29T03:43:21;15.30;99.90
22966;DHT22;11649;48.090;9.754;2023-07-29T03:45:48;15.30;99.90
22966;DHT22;11649;48.090;9.754;2023-07-29T03:48:15;15.30;99.90
22966;DHT22;11649;48.090;9.754;2023-07-29T03:50:42;15.40;99.90
22966;DHT22;11649;48.090;9.754;2023-07-29T03:53:08;15.50;99.90
22966;DHT22;11649;48.090;9.754;2023-07-29T03:55:36;15.60;99.90
22966;DHT22;11649;48.090;9.754;2023-07-29T03:58:03;15.70;99.90
22966;DHT22;11649;48.090;9.754;2023-07-29T04:00:30;15.60;99.90
22966;DHT22;11649;48.090;9.754;2023-07-29T04:02:57;15.70;99.90
22966;DHT22;11649;48.090;9.754;2023-07-29T04:05:24;15.70;99.90
22966;DHT22;11649;48.090;9.754;2023-07-29T04:07:51;15.70;99.90
22966;DHT22;11649;48.090;9.754;2023-07-29T04:10:17;15.70;99.90
22966;DHT22;11649;48.090;9.754;2023-07-29T04:12:44;15.60;99.90
22966;DHT22;11649;48.090;9.754;2023-07-29T04:15:11;15.40;99.90
22966;DHT22;11649;48.090;9.754;2023-07-29T04:17:38;15.40;99.90
22966;DHT22;11649;48.090;9.754;2023-07-29T04:20:05;15.40;99.90
22966;DHT22;11649;48.090;9.754;2023-07-29T04:22:34;15.50;99.90
22966;DHT22;11649;48.090;9.754;2023-07-29T04:25:01;15.50;99.90
22966;DHT22;11649;48.090;9.754;2023-07-29T04:27:27;15.60;99.90
22966;DHT22;11649;48.090;9.754;2023-07-29T04:29:54;15.70;99.90
22966;DHT22;11649;48.090;9.754;2023-07-29T04:32:21;15.80;99.90
22966;DHT22;11649;48.090;9.754;2023-07-29T04:34:48;15.70;99.90
22966;DHT22;11649;48.090;9.754;2023-07-29T04:37:14;15.50;99.90
22966;DHT22;11649;48.090;9.754;2023-07-29T04:39:41;15.50;99.90
22966;DHT22;11649;48.090;9.754;2023-07-29T04:42:08;15.60;99.90
22966;DHT22;11649;48.090;9.754;2023-07-29T04:44:35;15.70;99.90
22966;DHT22;11649;48.090;9.754;2023-07-29T04:47:01;15.70;99.90
22966;DHT22;11649;48.090;9.754;2023-07-29T04:49:28;15.70;99.90
22966;DHT22;11649;48.090;9.754;2023-07-29T04:51:55;16.00;99.90
22966;DHT22;11649;48.090;9.754;2023-07-29T04:54:22;16.10;99.90
22966;DHT22;11649;48.090;9.754;2023-07-29T04:56:49;15.90;99.90
22966;DHT22;11649;48.090;9.754;2023-07-29T04:59:15;15.90;99.90
22966;DHT22;11649;48.090;9.754;2023-07-29T05:01:43;15.80;99.90
22966;DHT22;11649;48.090;9.754;2023-07-29T05:04:10;15.80;99.90
22966;DHT22;11649;48.090;9.754;2023-07-29T05:06:36;15.70;99.90
22966;DHT22;11649;48.090;9.754;2023-07-29T05:09:18;15.80;99.90
22966;DHT22;11649;48.090;9.754;2023-07-29T05:11:47;15.90;99.90
22966;DHT22;11649;48.090;9.754;2023-07-29T05:14:14;15.90;99.90
22966;DHT22;11649;48.090;9.754;2023-07-29T05:16:41;15.80;99.90
22966;DHT22;11649;48.090;9.754;2023-07-29T05:19:08;15.90;99.90
22966;DHT22;11649;48.090;9.754;2023-07-29T05:21:36;16.00;99.90
22966;DHT22;11649;48.090;9.754;2023-07-29T05:24:03;16.10;99.90
22966;DHT22;11649;48.090;9.754;2023-07-29T05:26:30;16.10;99.90
22966;DHT22;11649;48.090;9.754;2023-07-29T05:28:57;16.10;99.90
22966;DHT22;11649;48.090;9.754;2023-07-29T05:31:24;16.20;99.90
22966;DHT22;11649;48.090;9.754;2023-07-29T05:33:51;16.30;99.90
22966;DHT22;11649;48.090;9.754;2023-07-29T05:36:18;16.30;99.90
22966;DHT22;11649;48.090;9.754;2023-07-29T05:38:45;16.30;99.90
22966;DHT22;11649;48.090;9.754;2023-07-29T05:41:12;16.30;99.90
22966;DHT22;11649;48.090;9.754;2023-07-29T05:43:39;16.40;99.90
22966;DHT22;11649;48.090;9.754;2023-07-29T05:46:06;16.40;99.90
22966;DHT22;11649;48.090;9.754;2023-07-29T05:48:33;16.40;99.90
22966;DHT22;11649;48.090;9.754;2023-07-29T05:51:00;16.40;99.90
22966;DHT22;11649;48.090;9.754;2023-07-29T05:53:27;16.50;99.90
22966;DHT22;11649;48.090;9.754;2023-07-29T05:55:54;16.40;99.90
22966;DHT22;11649;48.090;9.754;2023-07-29T05:58:20;16.50;99.90
22966;DHT22;11649;48.090;9.754;2023-07-29T06:00:47;16.60;99.90
22966;DHT22;11649;48.090;9.754;2023-07-29T06:03:15;16.60;99.90
22966;DHT22;11649;48.090;9.754;2023-07-29T06:05:42;16.70;99.90
22966;DHT22;11649;48.090;9.754;2023-07-29T06:08:10;16.70;99.90
22966;DHT22;11649;48.090;9.754;2023-07-29T06:10:38;16.90;99.90
22966;DHT22;11649;48.090;9.754;2023-07-29T06:13:05;16.80;99.90
22966;DHT22;11649;48.090;9.754;2023-07-29T06:15:32;16.90;99.90
22966;DHT22;11649;48.090;9.754;2023-07-29T06:17:59;17.00;99.90
22966;DHT22;11649;48.090;9.754;2023-07-29T06:20:26;17.20;99.90
22966;DHT22;11649;48.090;9.754;2023-07-29T06:22:53;17.20;99.90
22966;DHT22;11649;48.090;9.754;2023-07-29T06:25:20;17.20;99.90
22966;DHT22;11649;48.090;9.754;2023-07-29T06:27:46;17.20;99.90
22966;DHT22;11649;48.090;9.754;2023-07-29T06:30:13;17.30;99.90
22966;DHT22;11649;48.090;9.754;2023-07-29T06:32:40;17.20;99.90
22966;DHT22;11649;48.090;9.754;2023-07-29T06:35:07;17.20;99.90
22966;DHT22;11649;48.090;9.754;2023-07-29T06:37:34;17.10;99.90
22966;DHT22;11649;48.090;9.754;2023-07-29T06:40:00;17.10;99.90
22966;DHT22;11649;48.090;9.754;2023-07-29T06:42:27;17.30;99.90
22966;DHT22;11649;48.090;9.754;2023-07-29T06:44:54;17.50;99.90
22966;DHT22;11649;48.090;9.754;2023-07-29T06:47:35;17.70;99.90
22966;DHT22;11649;48.090;9.754;2023-07-29T06:50:02;17.70;99.90
22966;DHT22;11649;48.090;9.754;2023-07-29T06:52:29;17.80;99.90
22966;DHT22;11649;48.090;9.754;2023-07-29T06:54:56;17.80;99.90
22966;DHT22;11649;48.090;9.754;2023-07-29T06:57:23;17.90;99.90
22966;DHT22;11649;48.090;9.754;2023-07-29T06:59:50;18.00;99.90
22966;DHT22;11649;48.090;9.754;2023-07-29T07:02:17;18.10;99.90
22966;DHT22;11649;48.090;9.754;2023-07-29T07:04:43;18.00;99.90
22966;DHT22;11649;48.090;9.754;2023-07-29T07:07:10;18.00;99.90
22966;DHT22;11649;48.090;9.754;2023-07-29T07:09:37;18.00;99.90
22966;DHT22;11649;48.090;9.754;2023-07-29T07:12:04;18.20;99.90
22966;DHT22;11649;48.090;9.754;2023-07-29T07:14:31;18.30;99.90
22966;DHT22;11649;48.090;9.754;2023-07-29T07:16:58;18.50;99.90
22966;DHT22;11649;48.090;9.754;2023-07-29T07:19:24;18.80;99.90
22966;DHT22;11649;48.090;9.754;2023-07-29T07:21:57;18.90;99.90
22966;DHT22;11649;48.090;9.754;2023-07-29T07:24:23;19.00;99.90
22966;DHT22;11649;48.090;9.754;2023-07-29T07:26:50;19.00;99.90
22966;DHT22;11649;48.090;9.754;2023-07-29T07:29:17;18.90;99.90
22966;DHT22;11649;48.090;9.754;2023-07-29T07:31:50;19.00;99.90
22966;DHT22;11649;48.090;9.754;2023-07-29T07:34:19;19.00;99.90
22966;DHT22;11649;48.090;9.754;2023-07-29T07:36:46;19.10;99.90
22966;DHT22;11649;48.090;9.754;2023-07-29T07:39:13;19.00;99.90
22966;DHT22;11649;48.090;9.754;2023-07-29T07:41:41;18.90;99.90
22966;DHT22;11649;48.090;9.754;2023-07-29T07:44:08;18.90;99.90
22966;DHT22;11649;48.090;9.754;2023-07-29T07:46:35;18.80;99.90
22966;DHT22;11649;48.090;9.754;2023-07-29T07:49:02;18.90;99.90
22966;DHT22;11649;48.090;9.754;2023-07-29T07:51:29;19.00;99.90
22966;DHT22;11649;48.090;9.754;2023-07-29T07:53:56;19.10;99.90
22966;DHT22;11649;48.090;9.754;2023-07-29T07:56:23;19.10;99.90
22966;DHT22;11649;48.090;9.754;2023-07-29T07:58:50;19.20;99.90
22966;DHT22;11649;48.090;9.754;2023-07-29T08:01:17;19.30;99.90
22966;DHT22;11649;48.090;9.754;2023-07-29T08:03:44;19.40;99.90
22966;DHT22;11649;48.090;9.754;2023-07-29T08:06:11;19.50;99.90
22966;DHT22;11649;48.090;9.754;2023-07-29T08:08:37;19.40;99.90
22966;DHT22;11649;48.090;9.754;2023-07-29T08:11:04;19.50;99.90
22966;DHT22;11649;48.090;9.754;2023-07-29T08:13:31;19.50;99.90
22966;DHT22;11649;48.090;9.754;2023-07-29T08:15:58;19.60;99.90
22966;DHT22;11649;48.090;9.754;2023-07-29T08:18:25;19.70;99.90
22966;DHT22;11649;48.090;9.754;2023-07-29T08:23:21;19.90;99.90
22966;DHT22;11649;48.090;9.754;2023-07-29T08:25:55;20.00;99.90
22966;DHT22;11649;48.090;9.754;2023-07-29T08:28:23;20.20;99.90
22966;DHT22;11649;48.090;9.754;2023-07-29T08:30:50;20.30;99.90
22966;DHT22;11649;48.090;9.754;2023-07-29T08:33:17;20.40;99.90
22966;DHT22;11649;48.090;9.754;2023-07-29T08:35:44;20.40;99.90
22966;DHT22;11649;48.090;9.754;2023-07-29T08:38:10;20.50;99.90
22966;DHT22;11649;48.090;9.754;2023-07-29T08:40:42;20.70;99.90
22966;DHT22;11649;48.090;9.754;2023-07-29T08:43:12;20.70;99.90
22966;DHT22;11649;48.090;9.754;2023-07-29T08:45:41;20.80;99.90
22966;DHT22;11649;48.090;9.754;2023-07-29T08:48:10;20.80;99.90
22966;DHT22;11649;48.090;9.754;2023-07-29T08:50:37;21.00;99.90
22966;DHT22;11649;48.090;9.754;2023-07-29T08:53:04;21.20;99.90
22966;DHT22;11649;48.090;9.754;2023-07-29T08:55:34;21.20;99.90
22966;DHT22;11649;48.090;9.754;2023-07-29T08:58:02;21.20;99.90
22966;DHT22;11649;48.090;9.754;2023-07-29T09:00:29;21.20;99.90
22966;DHT22;11649;48.090;9.754;2023-07-29T09:02:57;21.20;99.90
22966;DHT22;11649;48.090;9.754;2023-07-29T09:05:29;21.20;99.90
22966;DHT22;11649;48.090;9.754;2023-07-29T09:07:56;21.20;99.90
22966;DHT22;11649;48.090;9.754;2023-07-29T09:10:25;21.20;99.90
22966;DHT22;11649;48.090;9.754;2023-07-29T09:12:53;21.30;99.90
22966;DHT22;11649;48.090;9.754;2023-07-29T09:15:30;21.30;99.90
22966;DHT22;11649;48.090;9.754;2023-07-29T09:17:58;21.40;99.90
22966;DHT22;11649;48.090;9.754;2023-07-29T09:20:28;21.40;99.90
22966;DHT22;11649;48.090;9.754;2023-07-29T09:22:58;21.30;99.90
22966;DHT22;11649;48.090;9.754;2023-07-29T09:25:27;21.20;99.90
22966;DHT22;11649;48.090;9.754;2023-07-29T09:28:01;21.20;99.90
22966;DHT22;11649;48.090;9.754;2023-07-29T09:30:28;21.10;99.90
22966;DHT22;11649;48.090;9.754;2023-07-29T09:32:58;21.20;99.90
22966;DHT22;11649;48.090;9.754;2023-07-29T09:35:28;21.20;99.90
22966;DHT22;11649;48.090;9.754;2023-07-29T09:37:55;21.10;99.90
22966;DHT22;11649;48.090;9.754;2023-07-29T09:40:21;21.10;99.90
22966;DHT22;11649;48.090;9.754;2023-07-29T09:42:55;21.10;99.90
22966;DHT22;11649;48.090;9.754;2023-07-29T09:45:26;21.10;99.90
22966;DHT22;11649;48.090;9.754;2023-07-29T09:47:54;21.10;99.90
22966;DHT22;11649;48.090;9.754;2023-07-29T09:50:24;21.20;99.90
22966;DHT22;11649;48.090;9.754;2023-07-29T09:52:52;21.40;99.90
22966;DHT22;11649;48.090;9.754;2023-07-29T09:55:21;21.70;99.90
22966;DHT22;11649;48.090;9.754;2023-07-29T09:57:57;21.90;99.90
22966;DHT22;11649;48.090;9.754;2023-07-29T10:00:29;22.30;99.90
22966;DHT22;11649;48.090;9.754;2023-07-29T10:02:57;22.40;99.90
22966;DHT22;11649;48.090;9.754;2023-07-29T10:05:28;22.40;99.90
22966;DHT22;11649;48.090;9.754;2023-07-29T10:07:56;22.20;99.90
22966;DHT22;11649;48.090;9.754;2023-07-29T10:10:23;22.20;99.90
22966;DHT22;11649;48.090;9.754;2023-07-29T10:12:50;22.20;99.90
22966;DHT22;11649;48.090;9.754;2023-07-29T10:15:17;22.10;99.90
22966;DHT22;11649;48.090;9.754;2023-07-29T10:17:46;22.20;99.90
22966;DHT22;11649;48.090;9.754;2023-07-29T10:20:15;22.30;99.90
22966;DHT22;11649;48.090;9.754;2023-07-29T10:22:44;22.40;99.90
22966;DHT22;11649;48.090;9.754;2023-07-29T10:25:17;22.50;99.90
22966;DHT22;11649;48.090;9.754;2023-07-29T10:27:48;22.30;99.90
22966;DHT22;11649;48.090;9.754;2023-07-29T10:30:16;22.00;99.90
22966;DHT22;11649;48.090;9.754;2023-07-29T10:32:44;21.40;99.90
22966;DHT22;11649;48.090;9.754;2023-07-29T10:35:12;21.20;99.90
22966;DHT22;11649;48.090;9.754;2023-07-29T10:37:40;21.30;99.90
22966;DHT22;11649;48.090;9.754;2023-07-29T10:40:10;21.50;99.90
22966;DHT22;11649;48.090;9.754;2023-07-29T10:42:38;21.70;99.90
22966;DHT22;11649;48.090;9.754;2023-07-29T10:45:25;22.00;99.90
22966;DHT22;11649;48.090;9.754;2023-07-29T10:47:51;22.20;99.90
22966;DHT22;11649;48.090;9.754;2023-07-29T10:50:21;22.40;99.90
22966;DHT22;11649;48.090;9.754;2023-07-29T10:52:50;22.50;99.90
22966;DHT22;11649;48.090;9.754;2023-07-29T10:55:25;22.90;99.90
22966;DHT22;11649;48.090;9.754;2023-07-29T10:57:52;23.30;99.90
22966;DHT22;11649;48.090;9.754;2023-07-29T11:00:20;23.40;99.90
22966;DHT22;11649;48.090;9.754;2023-07-29T11:03:01;23.40;99.90
22966;DHT22;11649;48.090;9.754;2023-07-29T11:05:47;23.60;99.90
22966;DHT22;11649;48.090;9.754;2023-07-29T11:08:28;23.60;99.90
22966;DHT22;11649;48.090;9.754;2023-07-29T11:13:30;23.70;99.90
22966;DHT22;11649;48.090;9.754;2023-07-29T11:15:58;23.70;99.90
22966;DHT22;11649;48.090;9.754;2023-07-29T11:18:34;23.70;99.90
22966;DHT22;11649;48.090;9.754;2023-07-29T11:21:03;23.50;99.90
22966;DHT22;11649;48.090;9.754;2023-07-29T11:23:35;23.30;99.90
22966;DHT22;11649;48.090;9.754;2023-07-29T11:26:03;23.20;99.90
22966;DHT22;11649;48.090;9.754;2023-07-29T11:28:30;23.30;99.90
22966;DHT22;11649;48.090;9.754;2023-07-29T11:30:58;23.00;99.90
22966;DHT22;11649;48.090;9.754;2023-07-29T11:33:26;22.90;99.90
22966;DHT22;11649;48.090;9.754;2023-07-29T11:35:55;22.80;99.90
22966;DHT22;11649;48.090;9.754;2023-07-29T11:38:22;22.70;99.90
22966;DHT22;11649;48.090;9.754;2023-07-29T11:41:00;22.80;99.90
22966;DHT22;11649;48.090;9.754;2023-07-29T11:43:29;23.10;99.90
22966;DHT22;11649;48.090;9.754;2023-07-29T11:45:56;23.30;99.90
22966;DHT22;11649;48.090;9.754;2023-07-29T11:48:35;23.30;99.90
22966;DHT22;11649;48.090;9.754;2023-07-29T11:51:02;23.40;99.90
22966;DHT22;11649;48.090;9.754;2023-07-29T11:53:30;23.60;99.90
22966;DHT22;11649;48.090;9.754;2023-07-29T11:55:58;23.70;99.90
22966;DHT22;11649;48.090;9.754;2023-07-29T11:58:26;23.70;99.90
22966;DHT22;11649;48.090;9.754;2023-07-29T12:00:53;23.80;99.90
22966;DHT22;11649;48.090;9.754;2023-07-29T12:03:20;24.10;99.90
22966;DHT22;11649;48.090;9.754;2023-07-29T12:05:47;24.30;99.90
22966;DHT22;11649;48.090;9.754;2023-07-29T12:08:15;24.30;99.90
22966;DHT22;11649;48.090;9.754;2023-07-29T12:10:42;24.00;93.90
22966;DHT22;11649;48.090;9.754;2023-07-29T12:13:10;24.10;94.70
22966;DHT22;11649;48.090;9.754;2023-07-29T12:15:38;24.20;96.00
22966;DHT22;11649;48.090;9.754;2023-07-29T12:18:05;24.40;97.00
22966;DHT22;11649;48.090;9.754;2023-07-29T12:20:32;24.60;93.20
22966;DHT22;11649;48.090;9.754;2023-07-29T12:23:00;24.80;91.70
22966;DHT22;11649;48.090;9.754;2023-07-29T12:25:31;24.90;91.20
22966;DHT22;11649;48.090;9.754;2023-07-29T12:28:05;24.90;87.00
22966;DHT22;11649;48.090;9.754;2023-07-29T12:30:33;24.90;83.30
22966;DHT22;11649;48.090;9.754;2023-07-29T12:33:00;24.90;80.60
22966;DHT22;11649;48.090;9.754;2023-07-29T12:35:35;24.90;78.50
22966;DHT22;11649;48.090;9.754;2023-07-29T12:38:02;24.70;80.00
22966;DHT22;11649;48.090;9.754;2023-07-29T12:40:29;24.70;82.00
22966;DHT22;11649;48.090;9.754;2023-07-29T12:42:56;24.80;75.70
22966;DHT22;11649;48.090;9.754;2023-07-29T12:45:23;25.10;76.90
22966;DHT22;11649;48.090;9.754;2023-07-29T12:47:53;25.40;73.60
22966;DHT22;11649;48.090;9.754;2023-07-29T12:50:20;25.80;62.60
22966;DHT22;11649;48.090;9.754;2023-07-29T12:52:48;25.80;65.00
22966;DHT22;11649;48.090;9.754;2023-07-29T12:55:15;26.00;59.50
22966;DHT22;11649;48.090;9.754;2023-07-29T12:57:43;26.10;57.30
22966;DHT22;11649;48.090;9.754;2023-07-29T13:00:12;26.20;57.40
22966;DHT22;11649;48.090;9.754;2023-07-29T13:02:39;26.40;58.30
22966;DHT22;11649;48.090;9.754;2023-07-29T13:05:09;26.60;57.00
22966;DHT22;11649;48.090;9.754;2023-07-29T13:07:40;26.70;57.90
22966;DHT22;11649;48.090;9.754;2023-07-29T13:10:08;26.90;60.10
22966;DHT22;11649;48.090;9.754;2023-07-29T13:12:36;27.10;57.70
22966;DHT22;11649;48.090;9.754;2023-07-29T13:15:03;27.10;54.90
22966;DHT22;11649;48.090;9.754;2023-07-29T13:17:30;27.10;59.00
22966;DHT22;11649;48.090;9.754;2023-07-29T13:19:56;27.00;58.70
22966;DHT22;11649;48.090;9.754;2023-07-29T13:22:23;26.80;57.00
22966;DHT22;11649;48.090;9.754;2023-07-29T13:24:50;26.40;56.00
22966;DHT22;11649;48.090;9.754;2023-07-29T13:27:17;26.10;57.20
22966;DHT22;11649;48.090;9.754;2023-07-29T13:29:44;25.90;59.90
22966;DHT22;11649;48.090;9.754;2023-07-29T13:32:10;25.90;57.50
22966;DHT22;11649;48.090;9.754;2023-07-29T13:34:37;26.00;57.80
22966;DHT22;11649;48.090;9.754;2023-07-29T13:37:06;25.80;59.30
22966;DHT22;11649;48.090;9.754;2023-07-29T13:39:33;25.70;56.80
22966;DHT22;11649;48.090;9.754;2023-07-29T13:42:00;25.40;61.20
22966;DHT22;11649;48.090;9.754;2023-07-29T13:44:29;25.10;60.40
22966;DHT22;11649;48.090;9.754;2023-07-29T13:46:55;24.90;61.10
22966;DHT22;11649;48.090;9.754;2023-07-29T13:49:22;24.90;61.20
22966;DHT22;11649;48.090;9.754;2023-07-29T13:51:52;24.80;62.50
22966;DHT22;11649;48.090;9.754;2023-07-29T13:54:19;24.70;67.50
22966;DHT22;11649;48.090;9.754;2023-07-29T13:56:45;24.30;74.20
22966;DHT22;11649;48.090;9.754;2023-07-29T13:59:12;24.30;72.10
22966;DHT22;11649;48.090;9.754;2023-07-29T14:01:39;24.30;78.50
22966;DHT22;11649;48.090;9.754;2023-07-29T14:04:06;24.30;75.70
22966;DHT22;11649;48.090;9.754;2023-07-29T14:06:32;24.40;74.90
22966;DHT22;11649;48.090;9.754;2023-07-29T14:09:11;24.30;76.00
22966;DHT22;11649;48.090;9.754;2023-07-29T14:11:38;24.20;80.10
22966;DHT22;11649;48.090;9.754;2023-07-29T14:14:06;24.00;81.80
22966;DHT22;11649;48.090;9.754;2023-07-29T14:16:33;23.90;86.70
22966;DHT22;11649;48.090;9.754;2023-07-29T14:19:00;23.90;86.60
22966;DHT22;11649;48.090;9.754;2023-07-29T14:21:27;23.90;83.90
22966;DHT22;11649;48.090;9.754;2023-07-29T14:23:54;23.80;90.80
22966;DHT22;11649;48.090;9.754;2023-07-29T14:26:21;23.70;90.10
22966;DHT22;11649;48.090;9.754;2023-07-29T14:29:06;23.60;90.00
22966;DHT22;11649;48.090;9.754;2023-07-29T14:31:33;23.50;90.20
22966;DHT22;11649;48.090;9.754;2023-07-29T14:34:00;23.60;90.50
22966;DHT22;11649;48.090;9.754;2023-07-29T14:36:27;23.50;90.90
22966;DHT22;11649;48.090;9.754;2023-07-29T14:38:55;23.40;92.50
22966;DHT22;11649;48.090;9.754;2023-07-29T14:41:22;23.60;92.90
22966;DHT22;11649;48.090;9.754;2023-07-29T14:43:49;23.70;91.80
22966;DHT22;11649;48.090;9.754;2023-07-29T14:46:15;23.70;93.20
22966;DHT22;11649;48.090;9.754;2023-07-29T14:48:43;23.50;91.70
22966;DHT22;11649;48.090;9.754;2023-07-29T14:51:10;23.40;92.40
22966;DHT22;11649;48.090;9.754;2023-07-29T14:53:37;23.20;92.30
22966;DHT22;11649;48.090;9.754;2023-07-29T14:56:04;23.00;94.20
22966;DHT22;11649;48.090;9.754;2023-07-29T14:58:31;23.00;95.00
22966;DHT22;11649;48.090;9.754;2023-07-29T15:00:58;23.00;96.30
22966;DHT22;11649;48.090;9.754;2023-07-29T15:03:25;22.80;97.00
22966;DHT22;11649;48.090;9.754;2023-07-29T15:05:52;22.70;96.60
22966;DHT22;11649;48.090;9.754;2023-07-29T15:08:18;22.50;99.90
22966;DHT22;11649;48.090;9.754;2023-07-29T15:10:48;22.10;99.90
22966;DHT22;11649;48.090;9.754;2023-07-29T15:13:15;21.70;99.90
22966;DHT22;11649;48.090;9.754;2023-07-29T15:15:43;21.50;99.90
22966;DHT22;11649;48.090;9.754;2023-07-29T15:18:10;21.40;99.90
22966;DHT22;11649;48.090;9.754;2023-07-29T15:20:37;21.50;99.90
22966;DHT22;11649;48.090;9.754;2023-07-29T15:23:04;21.60;99.90
22966;DHT22;11649;48.090;9.754;2023-07-29T15:25:32;21.70;99.90
22966;DHT22;11649;48.090;9.754;2023-07-29T15:27:58;21.70;99.90
22966;DHT22;11649;48.090;9.754;2023-07-29T15:30:25;21.80;99.90
22966;DHT22;11649;48.090;9.754;2023-07-29T15:32:52;21.80;99.90
22966;DHT22;11649;48.090;9.754;2023-07-29T15:35:22;21.90;99.90
22966;DHT22;11649;48.090;9.754;2023-07-29T15:37:48;22.00;99.90
22966;DHT22;11649;48.090;9.754;2023-07-29T15:40:15;22.10;99.90
22966;DHT22;11649;48.090;9.754;2023-07-29T15:42:43;22.20;99.90
22966;DHT22;11649;48.090;9.754;2023-07-29T15:45:10;22.10;99.90
22966;DHT22;11649;48.090;9.754;2023-07-29T15:47:37;21.90;99.90